Porthleven, United Kingdom
Current Conditions -  °F | °C
As of 7:50 PM on Tuesday 21 Oct 2014 (Local Time) from EGDR Reporting Station
Broken Clouds Broken Clouds  
Wind Chill: 54°   Ceiling: 30000
Heat Index: 54°   Visibility: 6mi
Dew Point: 39°   Wind: 17mph
Humidity: 58%   Direction: 300°WNW
Pressure: 30.27"   Gusts: 32mph
Location:  50.09°N, 5.32°W
Report Text: EGDR 211850Z 30015G28KT 9999 FEW024 SCT030 BKN300 12/04 Q1025 BLU TEMPO 8000 -SHRA SCT020 WHT
Loading
Personal Weather Stations






























Interactive Weather Map New forecast layout! Learn more

10-Day Weather Forecast

Advertisements
Track Severe Weather on mobile